<?xml version="1.0" encoding="UTF-8" standalone="no" ?>
<gpx xmlns="http://www.topografix.com/GPX/1/1" xmlns:xsi="http://www.w3.org/2001/XMLSchema-instance" xsi:schemaLocation="http://www.topografix.com/GPX/1/1 http://www.topografix.com/GPX/1/1/gpx.xsd" version="1.1" creator="VisuGPX - https://www.visugpx.com">
  <metadata>
    <name>Cabanon des Marquis</name>
    <desc><![CDATA[Rando facile,beau point de vue sur le golfe de La Ciotat.]]></desc>
  </metadata>
  <trk>
    <name><![CDATA[Cabanon des Marquis_2]]></name>
    <trkseg>
      <trkpt lat="43.23759" lon="5.65163">
        <ele>442</ele>
        <time>2014-10-08T06:54:20Z</time>
      </trkpt>
      <trkpt lat="43.2376" lon="5.65162">
        <ele>442.2</ele>
        <time>2014-10-08T06:54:21Z</time>
      </trkpt>
      <trkpt lat="43.23762" lon="5.65153">
        <ele>443.6</ele>
        <time>2014-10-08T06:54:28Z</time>
      </trkpt>
      <trkpt lat="43.23763" lon="5.65149">
        <ele>442.7</ele>
        <time>2014-10-08T06:54:31Z</time>
      </trkpt>
      <trkpt lat="43.23764" lon="5.65144">
        <ele>443</ele>
        <time>2014-10-08T06:54:34Z</time>
      </trkpt>
      <trkpt lat="43.23766" lon="5.65139">
        <ele>443.3</ele>
        <time>2014-10-08T06:54:38Z</time>
      </trkpt>
      <trkpt lat="43.23768" lon="5.65134">
        <ele>443.3</ele>
        <time>2014-10-08T06:54:42Z</time>
      </trkpt>
      <trkpt lat="43.23768" lon="5.65129">
        <ele>444.1</ele>
        <time>2014-10-08T06:54:45Z</time>
      </trkpt>
      <trkpt lat="43.2377" lon="5.65125">
        <ele>444.1</ele>
        <time>2014-10-08T06:54:48Z</time>
      </trkpt>
      <trkpt lat="43.23771" lon="5.6512">
        <ele>445.7</ele>
        <time>2014-10-08T06:54:51Z</time>
      </trkpt>
      <trkpt lat="43.23772" lon="5.65114">
        <ele>448</ele>
        <time>2014-10-08T06:54:57Z</time>
      </trkpt>
      <trkpt lat="43.23773" lon="5.65109">
        <ele>449.5</ele>
        <time>2014-10-08T06:55:01Z</time>
      </trkpt>
      <trkpt lat="43.23774" lon="5.65104">
        <ele>450.2</ele>
        <time>2014-10-08T06:55:04Z</time>
      </trkpt>
      <trkpt lat="43.23776" lon="5.65099">
        <ele>449.7</ele>
        <time>2014-10-08T06:55:07Z</time>
      </trkpt>
      <trkpt lat="43.23778" lon="5.65094">
        <ele>449.5</ele>
        <time>2014-10-08T06:55:11Z</time>
      </trkpt>
      <trkpt lat="43.23775" lon="5.6509">
        <ele>449.2</ele>
        <time>2014-10-08T06:55:19Z</time>
      </trkpt>
      <trkpt lat="43.23772" lon="5.65086">
        <ele>450.7</ele>
        <time>2014-10-08T06:55:37Z</time>
      </trkpt>
      <trkpt lat="43.23773" lon="5.65085">
        <ele>450.7</ele>
        <time>2014-10-08T06:55:38Z</time>
      </trkpt>
      <trkpt lat="43.23777" lon="5.65079">
        <ele>451.5</ele>
        <time>2014-10-08T06:55:44Z</time>
      </trkpt>
      <trkpt lat="43.2378" lon="5.65075">
        <ele>450.7</ele>
        <time>2014-10-08T06:55:47Z</time>
      </trkpt>
      <trkpt lat="43.23783" lon="5.6507">
        <ele>450</ele>
        <time>2014-10-08T06:55:50Z</time>
      </trkpt>
      <trkpt lat="43.23785" lon="5.65066">
        <ele>448.2</ele>
        <time>2014-10-08T06:55:53Z</time>
      </trkpt>
      <trkpt lat="43.23786" lon="5.6506">
        <ele>447.2</ele>
        <time>2014-10-08T06:55:57Z</time>
      </trkpt>
      <trkpt lat="43.23786" lon="5.65055">
        <ele>447.8</ele>
        <time>2014-10-08T06:56:00Z</time>
      </trkpt>
      <trkpt lat="43.23786" lon="5.65051">
        <ele>448.2</ele>
        <time>2014-10-08T06:56:03Z</time>
      </trkpt>
      <trkpt lat="43.23787" lon="5.65045">
        <ele>448.2</ele>
        <time>2014-10-08T06:56:06Z</time>
      </trkpt>
      <trkpt lat="43.23788" lon="5.6504">
        <ele>448.7</ele>
        <time>2014-10-08T06:56:09Z</time>
      </trkpt>
      <trkpt lat="43.23788" lon="5.65035">
        <ele>448.5</ele>
        <time>2014-10-08T06:56:13Z</time>
      </trkpt>
      <trkpt lat="43.23789" lon="5.6503">
        <ele>446.8</ele>
        <time>2014-10-08T06:56:17Z</time>
      </trkpt>
      <trkpt lat="43.23789" lon="5.65024">
        <ele>446.6</ele>
        <time>2014-10-08T06:56:22Z</time>
      </trkpt>
      <trkpt lat="43.2379" lon="5.65019">
        <ele>446.2</ele>
        <time>2014-10-08T06:56:25Z</time>
      </trkpt>
      <trkpt lat="43.23791" lon="5.65014">
        <ele>446.7</ele>
        <time>2014-10-08T06:56:29Z</time>
      </trkpt>
      <trkpt lat="43.23791" lon="5.65008">
        <ele>448.5</ele>
        <time>2014-10-08T06:56:32Z</time>
      </trkpt>
      <trkpt lat="43.23792" lon="5.65003">
        <ele>448.5</ele>
        <time>2014-10-08T06:56:35Z</time>
      </trkpt>
      <trkpt lat="43.23793" lon="5.64997">
        <ele>446.2</ele>
        <time>2014-10-08T06:56:40Z</time>
      </trkpt>
      <trkpt lat="43.23793" lon="5.64996">
        <ele>446.6</ele>
        <time>2014-10-08T06:56:41Z</time>
      </trkpt>
      <trkpt lat="43.23794" lon="5.64986">
        <ele>446.6</ele>
        <time>2014-10-08T06:56:49Z</time>
      </trkpt>
      <trkpt lat="43.23794" lon="5.64981">
        <ele>445.5</ele>
        <time>2014-10-08T06:56:53Z</time>
      </trkpt>
      <trkpt lat="43.23795" lon="5.64976">
        <ele>445.1</ele>
        <time>2014-10-08T06:56:56Z</time>
      </trkpt>
      <trkpt lat="43.23796" lon="5.64971">
        <ele>445.1</ele>
        <time>2014-10-08T06:56:59Z</time>
      </trkpt>
      <trkpt lat="43.23795" lon="5.64967">
        <ele>447.7</ele>
        <time>2014-10-08T06:57:02Z</time>
      </trkpt>
      <trkpt lat="43.23795" lon="5.64962">
        <ele>450.1</ele>
        <time>2014-10-08T06:57:05Z</time>
      </trkpt>
      <trkpt lat="43.23797" lon="5.64957">
        <ele>452</ele>
        <time>2014-10-08T06:57:08Z</time>
      </trkpt>
      <trkpt lat="43.23798" lon="5.64953">
        <ele>451.8</ele>
        <time>2014-10-08T06:57:11Z</time>
      </trkpt>
      <trkpt lat="43.23799" lon="5.64948">
        <ele>452.1</ele>
        <time>2014-10-08T06:57:14Z</time>
      </trkpt>
      <trkpt lat="43.238" lon="5.64943">
        <ele>451.5</ele>
        <time>2014-10-08T06:57:18Z</time>
      </trkpt>
      <trkpt lat="43.23802" lon="5.6494">
        <ele>453.8</ele>
        <time>2014-10-08T06:57:21Z</time>
      </trkpt>
      <trkpt lat="43.23805" lon="5.64935">
        <ele>455.2</ele>
        <time>2014-10-08T06:57:25Z</time>
      </trkpt>
      <trkpt lat="43.23806" lon="5.64929">
        <ele>456.7</ele>
        <time>2014-10-08T06:57:29Z</time>
      </trkpt>
      <trkpt lat="43.23809" lon="5.64925">
        <ele>458.8</ele>
        <time>2014-10-08T06:57:34Z</time>
      </trkpt>
      <trkpt lat="43.2381" lon="5.6492">
        <ele>457.6</ele>
        <time>2014-10-08T06:57:37Z</time>
      </trkpt>
      <trkpt lat="43.23811" lon="5.64914">
        <ele>455.3</ele>
        <time>2014-10-08T06:57:41Z</time>
      </trkpt>
      <trkpt lat="43.23812" lon="5.64913">
        <ele>455.8</ele>
        <time>2014-10-08T06:57:42Z</time>
      </trkpt>
      <trkpt lat="43.23814" lon="5.64903">
        <ele>456.6</ele>
        <time>2014-10-08T06:57:50Z</time>
      </trkpt>
      <trkpt lat="43.23815" lon="5.64899">
        <ele>457.2</ele>
        <time>2014-10-08T06:57:54Z</time>
      </trkpt>
      <trkpt lat="43.23817" lon="5.64895">
        <ele>457.2</ele>
        <time>2014-10-08T06:57:57Z</time>
      </trkpt>
      <trkpt lat="43.23819" lon="5.6489">
        <ele>459.1</ele>
        <time>2014-10-08T06:58:01Z</time>
      </trkpt>
      <trkpt lat="43.2382" lon="5.64884">
        <ele>457.6</ele>
        <time>2014-10-08T06:58:04Z</time>
      </trkpt>
      <trkpt lat="43.23821" lon="5.64879">
        <ele>456.2</ele>
        <time>2014-10-08T06:58:07Z</time>
      </trkpt>
      <trkpt lat="43.23822" lon="5.64875">
        <ele>455.2</ele>
        <time>2014-10-08T06:58:09Z</time>
      </trkpt>
      <trkpt lat="43.23824" lon="5.6487">
        <ele>455.2</ele>
        <time>2014-10-08T06:58:12Z</time>
      </trkpt>
      <trkpt lat="43.23825" lon="5.64866">
        <ele>457.7</ele>
        <time>2014-10-08T06:58:15Z</time>
      </trkpt>
      <trkpt lat="43.23827" lon="5.6486">
        <ele>460.7</ele>
        <time>2014-10-08T06:58:19Z</time>
      </trkpt>
      <trkpt lat="43.23827" lon="5.64854">
        <ele>461.6</ele>
        <time>2014-10-08T06:58:24Z</time>
      </trkpt>
      <trkpt lat="43.23827" lon="5.64849">
        <ele>461.5</ele>
        <time>2014-10-08T06:58:27Z</time>
      </trkpt>
      <trkpt lat="43.23828" lon="5.64844">
        <ele>462.5</ele>
        <time>2014-10-08T06:58:31Z</time>
      </trkpt>
      <trkpt lat="43.23829" lon="5.64838">
        <ele>463.2</ele>
        <time>2014-10-08T06:58:35Z</time>
      </trkpt>
      <trkpt lat="43.23829" lon="5.64833">
        <ele>463.7</ele>
        <time>2014-10-08T06:58:38Z</time>
      </trkpt>
      <trkpt lat="43.2383" lon="5.64828">
        <ele>463.6</ele>
        <time>2014-10-08T06:58:41Z</time>
      </trkpt>
      <trkpt lat="43.23831" lon="5.64823">
        <ele>463.2</ele>
        <time>2014-10-08T06:58:44Z</time>
      </trkpt>
      <trkpt lat="43.23831" lon="5.64822">
        <ele>463</ele>
        <time>2014-10-08T06:58:45Z</time>
      </trkpt>
      <trkpt lat="43.23832" lon="5.64813">
        <ele>461.1</ele>
        <time>2014-10-08T06:58:51Z</time>
      </trkpt>
      <trkpt lat="43.23833" lon="5.64808">
        <ele>460.7</ele>
        <time>2014-10-08T06:58:54Z</time>
      </trkpt>
      <trkpt lat="43.23834" lon="5.64803">
        <ele>460.3</ele>
        <time>2014-10-08T06:58:57Z</time>
      </trkpt>
      <trkpt lat="43.23835" lon="5.64798">
        <ele>460.2</ele>
        <time>2014-10-08T06:59:00Z</time>
      </trkpt>
      <trkpt lat="43.23837" lon="5.64794">
        <ele>460.7</ele>
        <time>2014-10-08T06:59:03Z</time>
      </trkpt>
      <trkpt lat="43.23838" lon="5.64789">
        <ele>460.7</ele>
        <time>2014-10-08T06:59:06Z</time>
      </trkpt>
      <trkpt lat="43.23839" lon="5.64783">
        <ele>462.1</ele>
        <time>2014-10-08T06:59:11Z</time>
      </trkpt>
      <trkpt lat="43.23841" lon="5.64778">
        <ele>461.8</ele>
        <time>2014-10-08T06:59:16Z</time>
      </trkpt>
      <trkpt lat="43.23838" lon="5.64773">
        <ele>468.8</ele>
        <time>2014-10-08T06:59:40Z</time>
      </trkpt>
      <trkpt lat="43.23841" lon="5.6477">
        <ele>468.7</ele>
        <time>2014-10-08T06:59:47Z</time>
      </trkpt>
      <trkpt lat="43.23842" lon="5.6477">
        <ele>468.2</ele>
        <time>2014-10-08T06:59:48Z</time>
      </trkpt>
      <trkpt lat="43.23847" lon="5.64764">
        <ele>466.7</ele>
        <time>2014-10-08T06:59:58Z</time>
      </trkpt>
      <trkpt lat="43.23849" lon="5.64759">
        <ele>468.2</ele>
        <time>2014-10-08T07:00:03Z</time>
      </trkpt>
      <trkpt lat="43.23851" lon="5.64755">
        <ele>468.7</ele>
        <time>2014-10-08T07:00:06Z</time>
      </trkpt>
      <trkpt lat="43.23854" lon="5.64752">
        <ele>467.3</ele>
        <time>2014-10-08T07:00:09Z</time>
      </trkpt>
      <trkpt lat="43.23856" lon="5.64747">
        <ele>466.1</ele>
        <time>2014-10-08T07:00:12Z</time>
      </trkpt>
      <trkpt lat="43.23858" lon="5.64744">
        <ele>466</ele>
        <time>2014-10-08T07:00:16Z</time>
      </trkpt>
      <trkpt lat="43.23861" lon="5.6474">
        <ele>464.8</ele>
        <time>2014-10-08T07:00:19Z</time>
      </trkpt>
      <trkpt lat="43.23863" lon="5.64737">
        <ele>464.8</ele>
        <time>2014-10-08T07:00:23Z</time>
      </trkpt>
      <trkpt lat="43.23865" lon="5.64731">
        <ele>464.8</ele>
        <time>2014-10-08T07:00:27Z</time>
      </trkpt>
      <trkpt lat="43.23868" lon="5.64728">
        <ele>464.7</ele>
        <time>2014-10-08T07:00:31Z</time>
      </trkpt>
      <trkpt lat="43.23872" lon="5.64724">
        <ele>465</ele>
        <time>2014-10-08T07:00:35Z</time>
      </trkpt>
      <trkpt lat="43.23875" lon="5.64721">
        <ele>466.2</ele>
        <time>2014-10-08T07:00:40Z</time>
      </trkpt>
      <trkpt lat="43.23878" lon="5.64718">
        <ele>463.8</ele>
        <time>2014-10-08T07:00:43Z</time>
      </trkpt>
      <trkpt lat="43.23881" lon="5.64715">
        <ele>464.2</ele>
        <time>2014-10-08T07:00:47Z</time>
      </trkpt>
      <trkpt lat="43.23883" lon="5.6471">
        <ele>463.8</ele>
        <time>2014-10-08T07:00:50Z</time>
      </trkpt>
      <trkpt lat="43.23884" lon="5.64709">
        <ele>464.6</ele>
        <time>2014-10-08T07:00:51Z</time>
      </trkpt>
      <trkpt lat="43.23888" lon="5.64702">
        <ele>473.1</ele>
        <time>2014-10-08T07:01:00Z</time>
      </trkpt>
      <trkpt lat="43.23892" lon="5.64699">
        <ele>475.7</ele>
        <time>2014-10-08T07:01:04Z</time>
      </trkpt>
      <trkpt lat="43.23895" lon="5.64696">
        <ele>475.7</ele>
        <time>2014-10-08T07:01:08Z</time>
      </trkpt>
      <trkpt lat="43.23897" lon="5.64692">
        <ele>476.8</ele>
        <time>2014-10-08T07:01:12Z</time>
      </trkpt>
      <trkpt lat="43.239" lon="5.6469">
        <ele>477.1</ele>
        <time>2014-10-08T07:01:14Z</time>
      </trkpt>
      <trkpt lat="43.23903" lon="5.64688">
        <ele>477.1</ele>
        <time>2014-10-08T07:01:16Z</time>
      </trkpt>
      <trkpt lat="43.23906" lon="5.64684">
        <ele>475.5</ele>
        <time>2014-10-08T07:01:19Z</time>
      </trkpt>
      <trkpt lat="43.23909" lon="5.64682">
        <ele>473.8</ele>
        <time>2014-10-08T07:01:22Z</time>
      </trkpt>
      <trkpt lat="43.23912" lon="5.64677">
        <ele>473.2</ele>
        <time>2014-10-08T07:01:25Z</time>
      </trkpt>
      <trkpt lat="43.23914" lon="5.64673">
        <ele>471.7</ele>
        <time>2014-10-08T07:01:28Z</time>
      </trkpt>
      <trkpt lat="43.23917" lon="5.64669">
        <ele>471.2</ele>
        <time>2014-10-08T07:01:32Z</time>
      </trkpt>
      <trkpt lat="43.2392" lon="5.64665">
        <ele>471.3</ele>
        <time>2014-10-08T07:01:35Z</time>
      </trkpt>
      <trkpt lat="43.23923" lon="5.64661">
        <ele>471</ele>
        <time>2014-10-08T07:01:39Z</time>
      </trkpt>
      <trkpt lat="43.23925" lon="5.64658">
        <ele>471.6</ele>
        <time>2014-10-08T07:01:42Z</time>
      </trkpt>
      <trkpt lat="43.23928" lon="5.64653">
        <ele>473.8</ele>
        <time>2014-10-08T07:01:45Z</time>
      </trkpt>
      <trkpt lat="43.23932" lon="5.64651">
        <ele>470.3</ele>
        <time>2014-10-08T07:01:48Z</time>
      </trkpt>
      <trkpt lat="43.23934" lon="5.6465">
        <ele>468</ele>
        <time>2014-10-08T07:01:50Z</time>
      </trkpt>
      <trkpt lat="43.23938" lon="5.64649">
        <ele>466.7</ele>
        <time>2014-10-08T07:01:52Z</time>
      </trkpt>
      <trkpt lat="43.2394" lon="5.64649">
        <ele>467.2</ele>
        <time>2014-10-08T07:01:53Z</time>
      </trkpt>
      <trkpt lat="43.23945" lon="5.64643">
        <ele>468.7</ele>
        <time>2014-10-08T07:01:59Z</time>
      </trkpt>
      <trkpt lat="43.23948" lon="5.64639">
        <ele>466.7</ele>
        <time>2014-10-08T07:02:02Z</time>
      </trkpt>
      <trkpt lat="43.2395" lon="5.64636">
        <ele>468.7</ele>
        <time>2014-10-08T07:02:05Z</time>
      </trkpt>
      <trkpt lat="43.23953" lon="5.64633">
        <ele>466.7</ele>
        <time>2014-10-08T07:02:08Z</time>
      </trkpt>
      <trkpt lat="43.23957" lon="5.6463">
        <ele>467.7</ele>
        <time>2014-10-08T07:02:11Z</time>
      </trkpt>
      <trkpt lat="43.23959" lon="5.64625">
        <ele>470</ele>
        <time>2014-10-08T07:02:15Z</time>
      </trkpt>
      <trkpt lat="43.2396" lon="5.64621">
        <ele>472.7</ele>
        <time>2014-10-08T07:02:18Z</time>
      </trkpt>
      <trkpt lat="43.23963" lon="5.64618">
        <ele>472.7</ele>
        <time>2014-10-08T07:02:20Z</time>
      </trkpt>
      <trkpt lat="43.23966" lon="5.64615">
        <ele>471.3</ele>
        <time>2014-10-08T07:02:23Z</time>
      </trkpt>
      <trkpt lat="43.23968" lon="5.6461">
        <ele>472.5</ele>
        <time>2014-10-08T07:02:27Z</time>
      </trkpt>
      <trkpt lat="43.23971" lon="5.64607">
        <ele>472.6</ele>
        <time>2014-10-08T07:02:30Z</time>
      </trkpt>
      <trkpt lat="43.23973" lon="5.64604">
        <ele>472.7</ele>
        <time>2014-10-08T07:02:33Z</time>
      </trkpt>
      <trkpt lat="43.23974" lon="5.646">
        <ele>473.1</ele>
        <time>2014-10-08T07:02:35Z</time>
      </trkpt>
      <trkpt lat="43.23977" lon="5.64597">
        <ele>473.5</ele>
        <time>2014-10-08T07:02:38Z</time>
      </trkpt>
      <trkpt lat="43.23981" lon="5.64594">
        <ele>474</ele>
        <time>2014-10-08T07:02:41Z</time>
      </trkpt>
      <trkpt lat="43.23984" lon="5.64591">
        <ele>473.3</ele>
        <time>2014-10-08T07:02:45Z</time>
      </trkpt>
      <trkpt lat="43.23987" lon="5.6459">
        <ele>470</ele>
        <time>2014-10-08T07:02:48Z</time>
      </trkpt>
      <trkpt lat="43.23991" lon="5.64587">
        <ele>467.7</ele>
        <time>2014-10-08T07:02:52Z</time>
      </trkpt>
      <trkpt lat="43.23995" lon="5.64585">
        <ele>468.2</ele>
        <time>2014-10-08T07:02:56Z</time>
      </trkpt>
      <trkpt lat="43.23996" lon="5.64584">
        <ele>467.7</ele>
        <time>2014-10-08T07:02:57Z</time>
      </trkpt>
      <trkpt lat="43.24001" lon="5.6458">
        <ele>470.2</ele>
        <time>2014-10-08T07:03:02Z</time>
      </trkpt>
      <trkpt lat="43.24003" lon="5.64576">
        <ele>471.7</ele>
        <time>2014-10-08T07:03:05Z</time>
      </trkpt>
      <trkpt lat="43.24005" lon="5.64571">
        <ele>475.5</ele>
        <time>2014-10-08T07:03:10Z</time>
      </trkpt>
      <trkpt lat="43.24006" lon="5.64566">
        <ele>479.1</ele>
        <time>2014-10-08T07:03:14Z</time>
      </trkpt>
      <trkpt lat="43.24008" lon="5.64561">
        <ele>480.5</ele>
        <time>2014-10-08T07:03:18Z</time>
      </trkpt>
      <trkpt lat="43.2401" lon="5.64556">
        <ele>480.7</ele>
        <time>2014-10-08T07:03:21Z</time>
      </trkpt>
      <trkpt lat="43.24011" lon="5.6455">
        <ele>481.6</ele>
        <time>2014-10-08T07:03:24Z</time>
      </trkpt>
      <trkpt lat="43.24012" lon="5.64546">
        <ele>482.6</ele>
        <time>2014-10-08T07:03:29Z</time>
      </trkpt>
      <trkpt lat="43.24013" lon="5.64541">
        <ele>483.7</ele>
        <time>2014-10-08T07:03:32Z</time>
      </trkpt>
      <trkpt lat="43.24014" lon="5.64537">
        <ele>484.2</ele>
        <time>2014-10-08T07:03:35Z</time>
      </trkpt>
      <trkpt lat="43.24014" lon="5.64533">
        <ele>487.2</ele>
        <time>2014-10-08T07:03:38Z</time>
      </trkpt>
      <trkpt lat="43.24014" lon="5.64527">
        <ele>488.2</ele>
        <time>2014-10-08T07:03:41Z</time>
      </trkpt>
      <trkpt lat="43.24014" lon="5.64522">
        <ele>489.2</ele>
        <time>2014-10-08T07:03:44Z</time>
      </trkpt>
      <trkpt lat="43.24014" lon="5.64517">
        <ele>488.8</ele>
        <time>2014-10-08T07:03:48Z</time>
      </trkpt>
      <trkpt lat="43.24015" lon="5.64512">
        <ele>486.6</ele>
        <time>2014-10-08T07:03:52Z</time>
      </trkpt>
      <trkpt lat="43.24015" lon="5.64507">
        <ele>483.2</ele>
        <time>2014-10-08T07:03:55Z</time>
      </trkpt>
      <trkpt lat="43.24013" lon="5.64502">
        <ele>480.2</ele>
        <time>2014-10-08T07:03:59Z</time>
      </trkpt>
      <trkpt lat="43.24013" lon="5.645">
        <ele>479.6</ele>
        <time>2014-10-08T07:04:00Z</time>
      </trkpt>
      <trkpt lat="43.24008" lon="5.64492">
        <ele>478.5</ele>
        <time>2014-10-08T07:04:07Z</time>
      </trkpt>
      <trkpt lat="43.24005" lon="5.64489">
        <ele>479</ele>
        <time>2014-10-08T07:04:10Z</time>
      </trkpt>
      <trkpt lat="43.24003" lon="5.64485">
        <ele>477.7</ele>
        <time>2014-10-08T07:04:14Z</time>
      </trkpt>
      <trkpt lat="43.24" lon="5.64481">
        <ele>479.1</ele>
        <time>2014-10-08T07:04:17Z</time>
      </trkpt>
      <trkpt lat="43.23997" lon="5.64478">
        <ele>478.7</ele>
        <time>2014-10-08T07:04:20Z</time>
      </trkpt>
      <trkpt lat="43.23995" lon="5.64474">
        <ele>482.6</ele>
        <time>2014-10-08T07:04:24Z</time>
      </trkpt>
      <trkpt lat="43.23991" lon="5.64474">
        <ele>484.7</ele>
        <time>2014-10-08T07:04:27Z</time>
      </trkpt>
      <trkpt lat="43.23989" lon="5.64471">
        <ele>486.7</ele>
        <time>2014-10-08T07:04:31Z</time>
      </trkpt>
      <trkpt lat="43.23986" lon="5.64467">
        <ele>487.7</ele>
        <time>2014-10-08T07:04:34Z</time>
      </trkpt>
      <trkpt lat="43.23984" lon="5.64463">
        <ele>487.7</ele>
        <time>2014-10-08T07:04:37Z</time>
      </trkpt>
      <trkpt lat="43.23982" lon="5.64458">
        <ele>486.8</ele>
        <time>2014-10-08T07:04:41Z</time>
      </trkpt>
      <trkpt lat="43.2398" lon="5.64453">
        <ele>486.1</ele>
        <time>2014-10-08T07:04:45Z</time>
      </trkpt>
      <trkpt lat="43.2398" lon="5.64448">
        <ele>485.8</ele>
        <time>2014-10-08T07:04:48Z</time>
      </trkpt>
      <trkpt lat="43.23981" lon="5.64442">
        <ele>485.5</ele>
        <time>2014-10-08T07:04:51Z</time>
      </trkpt>
      <trkpt lat="43.2398" lon="5.64437">
        <ele>487.3</ele>
        <time>2014-10-08T07:04:54Z</time>
      </trkpt>
      <trkpt lat="43.23981" lon="5.64431">
        <ele>488.1</ele>
        <time>2014-10-08T07:05:00Z</time>
      </trkpt>
      <trkpt lat="43.23981" lon="5.64431">
        <ele>487.5</ele>
        <time>2014-10-08T07:05:01Z</time>
      </trkpt>
      <trkpt lat="43.2398" lon="5.64421">
        <ele>490.1</ele>
        <time>2014-10-08T07:05:08Z</time>
      </trkpt>
      <trkpt lat="43.23979" lon="5.64415">
        <ele>493.1</ele>
        <time>2014-10-08T07:05:15Z</time>
      </trkpt>
      <trkpt lat="43.2398" lon="5.6441">
        <ele>492.1</ele>
        <time>2014-10-08T07:05:20Z</time>
      </trkpt>
      <trkpt lat="43.23983" lon="5.64407">
        <ele>489.2</ele>
        <time>2014-10-08T07:05:26Z</time>
      </trkpt>
      <trkpt lat="43.23985" lon="5.64401">
        <ele>491</ele>
        <time>2014-10-08T07:05:39Z</time>
      </trkpt>
      <trkpt lat="43.23983" lon="5.64397">
        <ele>493.5</ele>
        <time>2014-10-08T07:05:58Z</time>
      </trkpt>
      <trkpt lat="43.23986" lon="5.64394">
        <ele>485.2</ele>
        <time>2014-10-08T07:08:39Z</time>
      </trkpt>
      <trkpt lat="43.23987" lon="5.64394">
        <ele>484.7</ele>
        <time>2014-10-08T07:08:40Z</time>
      </trkpt>
      <trkpt lat="43.23983" lon="5.64383">
        <ele>488.5</ele>
        <time>2014-10-08T07:09:17Z</time>
      </trkpt>
      <trkpt lat="43.23983" lon="5.64378">
        <ele>488.2</ele>
        <time>2014-10-08T07:09:20Z</time>
      </trkpt>
      <trkpt lat="43.23982" lon="5.64373">
        <ele>489.3</ele>
        <time>2014-10-08T07:09:24Z</time>
      </trkpt>
      <trkpt lat="43.23982" lon="5.64368">
        <ele>487.8</ele>
        <time>2014-10-08T07:09:30Z</time>
      </trkpt>
      <trkpt lat="43.23983" lon="5.64363">
        <ele>486.2</ele>
        <time>2014-10-08T07:09:34Z</time>
      </trkpt>
      <trkpt lat="43.23984" lon="5.64357">
        <ele>488.6</ele>
        <time>2014-10-08T07:09:39Z</time>
      </trkpt>
      <trkpt lat="43.23983" lon="5.64351">
        <ele>490.5</ele>
        <time>2014-10-08T07:09:44Z</time>
      </trkpt>
      <trkpt lat="43.23983" lon="5.6435">
        <ele>491</ele>
        <time>2014-10-08T07:09:45Z</time>
      </trkpt>
      <trkpt lat="43.23984" lon="5.64342">
        <ele>489.3</ele>
        <time>2014-10-08T07:09:50Z</time>
      </trkpt>
      <trkpt lat="43.23985" lon="5.64336">
        <ele>489.6</ele>
        <time>2014-10-08T07:09:53Z</time>
      </trkpt>
      <trkpt lat="43.23983" lon="5.64331">
        <ele>490.8</ele>
        <time>2014-10-08T07:09:57Z</time>
      </trkpt>
      <trkpt lat="43.23983" lon="5.64326">
        <ele>490.2</ele>
        <time>2014-10-08T07:10:00Z</time>
      </trkpt>
      <trkpt lat="43.23982" lon="5.64321">
        <ele>490.1</ele>
        <time>2014-10-08T07:10:03Z</time>
      </trkpt>
      <trkpt lat="43.23981" lon="5.64316">
        <ele>488.7</ele>
        <time>2014-10-08T07:10:06Z</time>
      </trkpt>
      <trkpt lat="43.23981" lon="5.64311">
        <ele>488.2</ele>
        <time>2014-10-08T07:10:09Z</time>
      </trkpt>
      <trkpt lat="43.23981" lon="5.64307">
        <ele>486.8</ele>
        <time>2014-10-08T07:10:12Z</time>
      </trkpt>
      <trkpt lat="43.23982" lon="5.64302">
        <ele>484.7</ele>
        <time>2014-10-08T07:10:14Z</time>
      </trkpt>
      <trkpt lat="43.23981" lon="5.64296">
        <ele>484.7</ele>
        <time>2014-10-08T07:10:17Z</time>
      </trkpt>
      <trkpt lat="43.23981" lon="5.6429">
        <ele>485.5</ele>
        <time>2014-10-08T07:10:21Z</time>
      </trkpt>
      <trkpt lat="43.2398" lon="5.64285">
        <ele>486.3</ele>
        <time>2014-10-08T07:10:25Z</time>
      </trkpt>
      <trkpt lat="43.23979" lon="5.6428">
        <ele>483.7</ele>
        <time>2014-10-08T07:10:29Z</time>
      </trkpt>
      <trkpt lat="43.23977" lon="5.64276">
        <ele>484</ele>
        <time>2014-10-08T07:10:32Z</time>
      </trkpt>
      <trkpt lat="43.23975" lon="5.64272">
        <ele>484.8</ele>
        <time>2014-10-08T07:10:35Z</time>
      </trkpt>
      <trkpt lat="43.23973" lon="5.64268">
        <ele>485.2</ele>
        <time>2014-10-08T07:10:38Z</time>
      </trkpt>
      <trkpt lat="43.23971" lon="5.64263">
        <ele>485.6</ele>
        <time>2014-10-08T07:10:41Z</time>
      </trkpt>
      <trkpt lat="43.23969" lon="5.64258">
        <ele>485.7</ele>
        <time>2014-10-08T07:10:45Z</time>
      </trkpt>
      <trkpt lat="43.23969" lon="5.64256">
        <ele>485.5</ele>
        <time>2014-10-08T07:10:46Z</time>
      </trkpt>
      <trkpt lat="43.23967" lon="5.64248">
        <ele>485.6</ele>
        <time>2014-10-08T07:10:51Z</time>
      </trkpt>
      <trkpt lat="43.23966" lon="5.64244">
        <ele>485.7</ele>
        <time>2014-10-08T07:10:54Z</time>
      </trkpt>
      <trkpt lat="43.23964" lon="5.64239">
        <ele>486</ele>
        <time>2014-10-08T07:10:57Z</time>
      </trkpt>
      <trkpt lat="43.23963" lon="5.64235">
        <ele>487.5</ele>
        <time>2014-10-08T07:11:00Z</time>
      </trkpt>
      <trkpt lat="43.23962" lon="5.64229">
        <ele>487.7</ele>
        <time>2014-10-08T07:11:03Z</time>
      </trkpt>
      <trkpt lat="43.23962" lon="5.64224">
        <ele>487.7</ele>
        <time>2014-10-08T07:11:06Z</time>
      </trkpt>
      <trkpt lat="43.23961" lon="5.64218">
        <ele>487.7</ele>
        <time>2014-10-08T07:11:09Z</time>
      </trkpt>
      <trkpt lat="43.23961" lon="5.64213">
        <ele>488.2</ele>
        <time>2014-10-08T07:11:12Z</time>
      </trkpt>
      <trkpt lat="43.2396" lon="5.64208">
        <ele>489.1</ele>
        <time>2014-10-08T07:11:15Z</time>
      </trkpt>
      <trkpt lat="43.23961" lon="5.64204">
        <ele>490.2</ele>
        <time>2014-10-08T07:11:18Z</time>
      </trkpt>
      <trkpt lat="43.23962" lon="5.64199">
        <ele>490.7</ele>
        <time>2014-10-08T07:11:21Z</time>
      </trkpt>
      <trkpt lat="43.23962" lon="5.64194">
        <ele>490.2</ele>
        <time>2014-10-08T07:11:24Z</time>
      </trkpt>
      <trkpt lat="43.23964" lon="5.6419">
        <ele>490.3</ele>
        <time>2014-10-08T07:11:27Z</time>
      </trkpt>
      <trkpt lat="43.23967" lon="5.64185">
        <ele>490.5</ele>
        <time>2014-10-08T07:11:30Z</time>
      </trkpt>
      <trkpt lat="43.23968" lon="5.64179">
        <ele>489.2</ele>
        <time>2014-10-08T07:11:33Z</time>
      </trkpt>
      <trkpt lat="43.23969" lon="5.64174">
        <ele>488.7</ele>
        <time>2014-10-08T07:11:36Z</time>
      </trkpt>
      <trkpt lat="43.2397" lon="5.64168">
        <ele>488.5</ele>
        <time>2014-10-08T07:11:39Z</time>
      </trkpt>
      <trkpt lat="43.23971" lon="5.64164">
        <ele>488.7</ele>
        <time>2014-10-08T07:11:42Z</time>
      </trkpt>
      <trkpt lat="43.23972" lon="5.64159">
        <ele>488.7</ele>
        <time>2014-10-08T07:11:45Z</time>
      </trkpt>
      <trkpt lat="43.23973" lon="5.64155">
        <ele>489.8</ele>
        <time>2014-10-08T07:11:48Z</time>
      </trkpt>
      <trkpt lat="43.23974" lon="5.64154">
        <ele>490.2</ele>
        <time>2014-10-08T07:11:49Z</time>
      </trkpt>
      <trkpt lat="43.23977" lon="5.64147">
        <ele>489.2</ele>
        <time>2014-10-08T07:11:54Z</time>
      </trkpt>
      <trkpt lat="43.23979" lon="5.64143">
        <ele>490.1</ele>
        <time>2014-10-08T07:11:57Z</time>
      </trkpt>
      <trkpt lat="43.23981" lon="5.64139">
        <ele>490.6</ele>
        <time>2014-10-08T07:12:00Z</time>
      </trkpt>
      <trkpt lat="43.23982" lon="5.64134">
        <ele>490.2</ele>
        <time>2014-10-08T07:12:03Z</time>
      </trkpt>
      <trkpt lat="43.23983" lon="5.6413">
        <ele>489.7</ele>
        <time>2014-10-08T07:12:06Z</time>
      </trkpt>
      <trkpt lat="43.23986" lon="5.64125">
        <ele>490</ele>
        <time>2014-10-08T07:12:09Z</time>
      </trkpt>
      <trkpt lat="43.23988" lon="5.6412">
        <ele>490.2</ele>
        <time>2014-10-08T07:12:13Z</time>
      </trkpt>
      <trkpt lat="43.2399" lon="5.64115">
        <ele>490.5</ele>
        <time>2014-10-08T07:12:16Z</time>
      </trkpt>
      <trkpt lat="43.23991" lon="5.6411">
        <ele>490.3</ele>
        <time>2014-10-08T07:12:20Z</time>
      </trkpt>
      <trkpt lat="43.23994" lon="5.64105">
        <ele>489.8</ele>
        <time>2014-10-08T07:12:24Z</time>
      </trkpt>
      <trkpt lat="43.23994" lon="5.64101">
        <ele>490.7</ele>
        <time>2014-10-08T07:12:27Z</time>
      </trkpt>
      <trkpt lat="43.23995" lon="5.64095">
        <ele>489.3</ele>
        <time>2014-10-08T07:12:30Z</time>
      </trkpt>
      <trkpt lat="43.23997" lon="5.6409">
        <ele>489.2</ele>
        <time>2014-10-08T07:12:33Z</time>
      </trkpt>
      <trkpt lat="43.23998" lon="5.64084">
        <ele>488.8</ele>
        <time>2014-10-08T07:12:37Z</time>
      </trkpt>
      <trkpt lat="43.24" lon="5.6408">
        <ele>488</ele>
        <time>2014-10-08T07:12:42Z</time>
      </trkpt>
      <trkpt lat="43.24002" lon="5.64075">
        <ele>487.2</ele>
        <time>2014-10-08T07:12:45Z</time>
      </trkpt>
      <trkpt lat="43.24004" lon="5.6407">
        <ele>486.2</ele>
        <time>2014-10-08T07:12:48Z</time>
      </trkpt>
      <trkpt lat="43.24006" lon="5.64066">
        <ele>486.7</ele>
        <time>2014-10-08T07:12:51Z</time>
      </trkpt>
      <trkpt lat="43.24006" lon="5.64065">
        <ele>486.5</ele>
        <time>2014-10-08T07:12:52Z</time>
      </trkpt>
      <trkpt lat="43.2401" lon="5.64056">
        <ele>485.8</ele>
        <time>2014-10-08T07:12:58Z</time>
      </trkpt>
      <trkpt lat="43.24012" lon="5.64052">
        <ele>486.8</ele>
        <time>2014-10-08T07:13:01Z</time>
      </trkpt>
      <trkpt lat="43.24014" lon="5.64047">
        <ele>487.5</ele>
        <time>2014-10-08T07:13:05Z</time>
      </trkpt>
      <trkpt lat="43.24015" lon="5.64042">
        <ele>489.7</ele>
        <time>2014-10-08T07:13:10Z</time>
      </trkpt>
      <trkpt lat="43.24016" lon="5.64036">
        <ele>491.6</ele>
        <time>2014-10-08T07:13:15Z</time>
      </trkpt>
      <trkpt lat="43.24017" lon="5.64032">
        <ele>495.7</ele>
        <time>2014-10-08T07:13:19Z</time>
      </trkpt>
      <trkpt lat="43.24019" lon="5.64027">
        <ele>498.6</ele>
        <time>2014-10-08T07:13:23Z</time>
      </trkpt>
      <trkpt lat="43.2402" lon="5.64022">
        <ele>498.7</ele>
        <time>2014-10-08T07:13:26Z</time>
      </trkpt>
      <trkpt lat="43.24019" lon="5.64016">
        <ele>497.5</ele>
        <time>2014-10-08T07:13:30Z</time>
      </trkpt>
      <trkpt lat="43.24021" lon="5.64011">
        <ele>496.8</ele>
        <time>2014-10-08T07:13:34Z</time>
      </trkpt>
      <trkpt lat="43.24023" lon="5.64006">
        <ele>495.2</ele>
        <time>2014-10-08T07:13:37Z</time>
      </trkpt>
      <trkpt lat="43.24023" lon="5.64001">
        <ele>495.2</ele>
        <time>2014-10-08T07:13:42Z</time>
      </trkpt>
      <trkpt lat="43.24023" lon="5.63997">
        <ele>495.7</ele>
        <time>2014-10-08T07:13:45Z</time>
      </trkpt>
      <trkpt lat="43.24025" lon="5.63991">
        <ele>494.7</ele>
        <time>2014-10-08T07:13:48Z</time>
      </trkpt>
      <trkpt lat="43.24026" lon="5.63987">
        <ele>496.3</ele>
        <time>2014-10-08T07:13:52Z</time>
      </trkpt>
      <trkpt lat="43.24027" lon="5.63986">
        <ele>496.5</ele>
        <time>2014-10-08T07:13:53Z</time>
      </trkpt>
      <trkpt lat="43.24029" lon="5.63977">
        <ele>499.6</ele>
        <time>2014-10-08T07:14:00Z</time>
      </trkpt>
      <trkpt lat="43.2403" lon="5.63972">
        <ele>497.8</ele>
        <time>2014-10-08T07:14:03Z</time>
      </trkpt>
      <trkpt lat="43.24032" lon="5.63966">
        <ele>496.7</ele>
        <time>2014-10-08T07:14:07Z</time>
      </trkpt>
      <trkpt lat="43.24033" lon="5.63961">
        <ele>494.8</ele>
        <time>2014-10-08T07:14:10Z</time>
      </trkpt>
      <trkpt lat="43.24033" lon="5.63956">
        <ele>494.3</ele>
        <time>2014-10-08T07:14:14Z</time>
      </trkpt>
      <trkpt lat="43.24033" lon="5.6395">
        <ele>494.6</ele>
        <time>2014-10-08T07:14:18Z</time>
      </trkpt>
      <trkpt lat="43.24034" lon="5.63944">
        <ele>495.2</ele>
        <time>2014-10-08T07:14:22Z</time>
      </trkpt>
      <trkpt lat="43.24034" lon="5.63939">
        <ele>496.1</ele>
        <time>2014-10-08T07:14:26Z</time>
      </trkpt>
      <trkpt lat="43.24035" lon="5.63934">
        <ele>496.3</ele>
        <time>2014-10-08T07:14:30Z</time>
      </trkpt>
      <trkpt lat="43.24036" lon="5.63928">
        <ele>497.2</ele>
        <time>2014-10-08T07:14:34Z</time>
      </trkpt>
      <trkpt lat="43.24036" lon="5.63923">
        <ele>498</ele>
        <time>2014-10-08T07:14:38Z</time>
      </trkpt>
      <trkpt lat="43.24036" lon="5.63918">
        <ele>497.7</ele>
        <time>2014-10-08T07:14:41Z</time>
      </trkpt>
      <trkpt lat="43.24038" lon="5.63912">
        <ele>498.5</ele>
        <time>2014-10-08T07:14:45Z</time>
      </trkpt>
      <trkpt lat="43.24038" lon="5.63907">
        <ele>499.6</ele>
        <time>2014-10-08T07:14:49Z</time>
      </trkpt>
      <trkpt lat="43.24038" lon="5.63902">
        <ele>499.7</ele>
        <time>2014-10-08T07:14:53Z</time>
      </trkpt>
      <trkpt lat="43.24038" lon="5.63901">
        <ele>499.8</ele>
        <time>2014-10-08T07:14:54Z</time>
      </trkpt>
      <trkpt lat="43.24038" lon="5.63892">
        <ele>499.1</ele>
        <time>2014-10-08T07:15:00Z</time>
      </trkpt>
      <trkpt lat="43.24039" lon="5.63886">
        <ele>499.1</ele>
        <time>2014-10-08T07:15:04Z</time>
      </trkpt>
      <trkpt lat="43.24039" lon="5.63881">
        <ele>499.8</ele>
        <time>2014-10-08T07:15:08Z</time>
      </trkpt>
      <trkpt lat="43.24039" lon="5.63875">
        <ele>502.2</ele>
        <time>2014-10-08T07:15:13Z</time>
      </trkpt>
      <trkpt lat="43.2404" lon="5.6387">
        <ele>502.7</ele>
        <time>2014-10-08T07:15:17Z</time>
      </trkpt>
      <trkpt lat="43.24041" lon="5.63864">
        <ele>503.1</ele>
        <time>2014-10-08T07:15:21Z</time>
      </trkpt>
      <trkpt lat="43.24042" lon="5.6386">
        <ele>502.5</ele>
        <time>2014-10-08T07:15:24Z</time>
      </trkpt>
      <trkpt lat="43.24043" lon="5.63854">
        <ele>501.3</ele>
        <time>2014-10-08T07:15:28Z</time>
      </trkpt>
      <trkpt lat="43.24043" lon="5.63848">
        <ele>503.5</ele>
        <time>2014-10-08T07:15:32Z</time>
      </trkpt>
      <trkpt lat="43.24044" lon="5.63843">
        <ele>503.6</ele>
        <time>2014-10-08T07:15:35Z</time>
      </trkpt>
      <trkpt lat="43.24046" lon="5.63838">
        <ele>504.2</ele>
        <time>2014-10-08T07:15:40Z</time>
      </trkpt>
      <trkpt lat="43.24047" lon="5.63832">
        <ele>504.8</ele>
        <time>2014-10-08T07:15:44Z</time>
      </trkpt>
      <trkpt lat="43.24048" lon="5.63827">
        <ele>504.2</ele>
        <time>2014-10-08T07:15:48Z</time>
      </trkpt>
      <trkpt lat="43.2405" lon="5.63822">
        <ele>503.7</ele>
        <time>2014-10-08T07:15:52Z</time>
      </trkpt>
      <trkpt lat="43.24052" lon="5.63816">
        <ele>504.2</ele>
        <time>2014-10-08T07:15:56Z</time>
      </trkpt>
      <trkpt lat="43.24053" lon="5.63815">
        <ele>504.6</ele>
        <time>2014-10-08T07:15:57Z</time>
      </trkpt>
      <trkpt lat="43.24056" lon="5.63807">
        <ele>507.5</ele>
        <time>2014-10-08T07:16:04Z</time>
      </trkpt>
      <trkpt lat="43.24057" lon="5.63802">
        <ele>508.2</ele>
        <time>2014-10-08T07:16:07Z</time>
      </trkpt>
      <trkpt lat="43.24058" lon="5.63797">
        <ele>509.8</ele>
        <time>2014-10-08T07:16:12Z</time>
      </trkpt>
      <trkpt lat="43.2406" lon="5.63791">
        <ele>510.5</ele>
        <time>2014-10-08T07:16:17Z</time>
      </trkpt>
      <trkpt lat="43.24062" lon="5.63787">
        <ele>510.2</ele>
        <time>2014-10-08T07:16:21Z</time>
      </trkpt>
      <trkpt lat="43.24065" lon="5.63782">
        <ele>509.3</ele>
        <time>2014-10-08T07:16:25Z</time>
      </trkpt>
      <trkpt lat="43.24067" lon="5.63777">
        <ele>509.2</ele>
        <time>2014-10-08T07:16:30Z</time>
      </trkpt>
      <trkpt lat="43.24068" lon="5.63772">
        <ele>509.7</ele>
        <time>2014-10-08T07:16:34Z</time>
      </trkpt>
      <trkpt lat="43.2407" lon="5.63768">
        <ele>510.2</ele>
        <time>2014-10-08T07:16:37Z</time>
      </trkpt>
      <trkpt lat="43.24073" lon="5.63763">
        <ele>509.8</ele>
        <time>2014-10-08T07:16:41Z</time>
      </trkpt>
      <trkpt lat="43.24075" lon="5.63759">
        <ele>510.2</ele>
        <time>2014-10-08T07:16:45Z</time>
      </trkpt>
      <trkpt lat="43.24078" lon="5.63754">
        <ele>511.5</ele>
        <time>2014-10-08T07:16:50Z</time>
      </trkpt>
      <trkpt lat="43.24081" lon="5.63751">
        <ele>512.2</ele>
        <time>2014-10-08T07:16:55Z</time>
      </trkpt>
      <trkpt lat="43.24085" lon="5.63749">
        <ele>513.7</ele>
        <time>2014-10-08T07:16:59Z</time>
      </trkpt>
      <trkpt lat="43.24085" lon="5.63748">
        <ele>513.9</ele>
        <time>2014-10-08T07:17:00Z</time>
      </trkpt>
      <trkpt lat="43.2409" lon="5.63742">
        <ele>514.2</ele>
        <time>2014-10-08T07:17:07Z</time>
      </trkpt>
      <trkpt lat="43.24094" lon="5.6374">
        <ele>514.2</ele>
        <time>2014-10-08T07:17:10Z</time>
      </trkpt>
      <trkpt lat="43.24098" lon="5.63738">
        <ele>515</ele>
        <time>2014-10-08T07:17:13Z</time>
      </trkpt>
      <trkpt lat="43.24101" lon="5.63736">
        <ele>515.5</ele>
        <time>2014-10-08T07:17:16Z</time>
      </trkpt>
      <trkpt lat="43.24105" lon="5.63733">
        <ele>515.5</ele>
        <time>2014-10-08T07:17:20Z</time>
      </trkpt>
      <trkpt lat="43.24108" lon="5.63729">
        <ele>515.7</ele>
        <time>2014-10-08T07:17:24Z</time>
      </trkpt>
      <trkpt lat="43.24112" lon="5.63726">
        <ele>517.4</ele>
        <time>2014-10-08T07:17:30Z</time>
      </trkpt>
      <trkpt lat="43.24116" lon="5.63724">
        <ele>517.5</ele>
        <time>2014-10-08T07:17:33Z</time>
      </trkpt>
      <trkpt lat="43.24119" lon="5.63722">
        <ele>517.5</ele>
        <time>2014-10-08T07:17:37Z</time>
      </trkpt>
      <trkpt lat="43.24123" lon="5.63719">
        <ele>517.7</ele>
        <time>2014-10-08T07:17:41Z</time>
      </trkpt>
      <trkpt lat="43.24127" lon="5.63717">
        <ele>517.5</ele>
        <time>2014-10-08T07:17:46Z</time>
      </trkpt>
      <trkpt lat="43.24131" lon="5.63716">
        <ele>519</ele>
        <time>2014-10-08T07:17:49Z</time>
      </trkpt>
      <trkpt lat="43.24134" lon="5.63713">
        <ele>519.2</ele>
        <time>2014-10-08T07:17:53Z</time>
      </trkpt>
      <trkpt lat="43.24137" lon="5.6371">
        <ele>519.9</ele>
        <time>2014-10-08T07:17:57Z</time>
      </trkpt>
      <trkpt lat="43.2414" lon="5.63706">
        <ele>519.2</ele>
        <time>2014-10-08T07:18:01Z</time>
      </trkpt>
      <trkpt lat="43.24141" lon="5.63705">
        <ele>519.4</ele>
        <time>2014-10-08T07:18:02Z</time>
      </trkpt>
      <trkpt lat="43.24147" lon="5.63701">
        <ele>519.7</ele>
        <time>2014-10-08T07:18:07Z</time>
      </trkpt>
      <trkpt lat="43.2415" lon="5.63698">
        <ele>520.7</ele>
        <time>2014-10-08T07:18:11Z</time>
      </trkpt>
      <trkpt lat="43.24154" lon="5.63694">
        <ele>521.5</ele>
        <time>2014-10-08T07:18:16Z</time>
      </trkpt>
      <trkpt lat="43.24157" lon="5.63691">
        <ele>521.5</ele>
        <time>2014-10-08T07:18:20Z</time>
      </trkpt>
      <trkpt lat="43.24161" lon="5.63689">
        <ele>522.5</ele>
        <time>2014-10-08T07:18:25Z</time>
      </trkpt>
      <trkpt lat="43.24163" lon="5.63685">
        <ele>522</ele>
        <time>2014-10-08T07:18:29Z</time>
      </trkpt>
      <trkpt lat="43.24166" lon="5.63682">
        <ele>521.5</ele>
        <time>2014-10-08T07:18:32Z</time>
      </trkpt>
      <trkpt lat="43.24169" lon="5.63678">
        <ele>520.5</ele>
        <time>2014-10-08T07:18:36Z</time>
      </trkpt>
      <trkpt lat="43.24171" lon="5.63675">
        <ele>520.7</ele>
        <time>2014-10-08T07:18:39Z</time>
      </trkpt>
      <trkpt lat="43.24174" lon="5.63672">
        <ele>521</ele>
        <time>2014-10-08T07:18:42Z</time>
      </trkpt>
      <trkpt lat="43.24177" lon="5.63668">
        <ele>521</ele>
        <time>2014-10-08T07:18:46Z</time>
      </trkpt>
      <trkpt lat="43.2418" lon="5.63664">
        <ele>521</ele>
        <time>2014-10-08T07:18:50Z</time>
      </trkpt>
      <trkpt lat="43.24183" lon="5.63659">
        <ele>520.4</ele>
        <time>2014-10-08T07:18:54Z</time>
      </trkpt>
      <trkpt lat="43.24186" lon="5.63655">
        <ele>520.2</ele>
        <time>2014-10-08T07:18:57Z</time>
      </trkpt>
      <trkpt lat="43.24189" lon="5.63653">
        <ele>520.2</ele>
        <time>2014-10-08T07:19:00Z</time>
      </trkpt>
      <trkpt lat="43.24193" lon="5.63651">
        <ele>520.2</ele>
        <time>2014-10-08T07:19:04Z</time>
      </trkpt>
      <trkpt lat="43.24194" lon="5.6365">
        <ele>520.2</ele>
        <time>2014-10-08T07:19:05Z</time>
      </trkpt>
      <trkpt lat="43.242" lon="5.63647">
        <ele>520.7</ele>
        <time>2014-10-08T07:19:13Z</time>
      </trkpt>
      <trkpt lat="43.24204" lon="5.63644">
        <ele>521</ele>
        <time>2014-10-08T07:19:18Z</time>
      </trkpt>
      <trkpt lat="43.24207" lon="5.63642">
        <ele>521.2</ele>
        <time>2014-10-08T07:19:22Z</time>
      </trkpt>
      <trkpt lat="43.24211" lon="5.6364">
        <ele>522.5</ele>
        <time>2014-10-08T07:19:26Z</time>
      </trkpt>
      <trkpt lat="43.24215" lon="5.63638">
        <ele>522.4</ele>
        <time>2014-10-08T07:19:29Z</time>
      </trkpt>
      <trkpt lat="43.24218" lon="5.63636">
        <ele>522.7</ele>
        <time>2014-10-08T07:19:32Z</time>
      </trkpt>
      <trkpt lat="43.24221" lon="5.63633">
        <ele>523.2</ele>
        <time>2014-10-08T07:19:37Z</time>
      </trkpt>
      <trkpt lat="43.24224" lon="5.63631">
        <ele>524.2</ele>
        <time>2014-10-08T07:19:50Z</time>
      </trkpt>
      <trkpt lat="43.24224" lon="5.63625">
        <ele>526.2</ele>
        <time>2014-10-08T07:20:20Z</time>
      </trkpt>
      <trkpt lat="43.24224" lon="5.63624">
        <ele>526</ele>
        <time>2014-10-08T07:20:21Z</time>
      </trkpt>
      <trkpt lat="43.24224" lon="5.63619">
        <ele>521.2</ele>
        <time>2014-10-08T07:20:56Z</time>
      </trkpt>
      <trkpt lat="43.24226" lon="5.63623">
        <ele>519.2</ele>
        <time>2014-10-08T07:21:07Z</time>
      </trkpt>
      <trkpt lat="43.24229" lon="5.63619">
        <ele>522.4</ele>
        <time>2014-10-08T07:23:18Z</time>
      </trkpt>
      <trkpt lat="43.24229" lon="5.63619">
        <ele>522.4</ele>
        <time>2014-10-08T07:23:19Z</time>
      </trkpt>
      <trkpt lat="43.24228" lon="5.63625">
        <ele>522.5</ele>
        <time>2014-10-08T07:24:26Z</time>
      </trkpt>
      <trkpt lat="43.24233" lon="5.63627">
        <ele>526.2</ele>
        <time>2014-10-08T07:26:55Z</time>
      </trkpt>
      <trkpt lat="43.2424" lon="5.63625">
        <ele>526</ele>
        <time>2014-10-08T07:27:06Z</time>
      </trkpt>
      <trkpt lat="43.24244" lon="5.63622">
        <ele>524.9</ele>
        <time>2014-10-08T07:27:12Z</time>
      </trkpt>
      <trkpt lat="43.24247" lon="5.63618">
        <ele>523.2</ele>
        <time>2014-10-08T07:27:17Z</time>
      </trkpt>
      <trkpt lat="43.2425" lon="5.63614">
        <ele>522.5</ele>
        <time>2014-10-08T07:27:21Z</time>
      </trkpt>
      <trkpt lat="43.24253" lon="5.63612">
        <ele>523.4</ele>
        <time>2014-10-08T07:27:26Z</time>
      </trkpt>
      <trkpt lat="43.24256" lon="5.63609">
        <ele>523.2</ele>
        <time>2014-10-08T07:27:29Z</time>
      </trkpt>
      <trkpt lat="43.24259" lon="5.63606">
        <ele>524.5</ele>
        <time>2014-10-08T07:27:34Z</time>
      </trkpt>
      <trkpt lat="43.24262" lon="5.63604">
        <ele>524.7</ele>
        <time>2014-10-08T07:27:37Z</time>
      </trkpt>
      <trkpt lat="43.24266" lon="5.63601">
        <ele>524.7</ele>
        <time>2014-10-08T07:27:40Z</time>
      </trkpt>
      <trkpt lat="43.24269" lon="5.63598">
        <ele>524.7</ele>
        <time>2014-10-08T07:27:44Z</time>
      </trkpt>
      <trkpt lat="43.24273" lon="5.63596">
        <ele>525.4</ele>
        <time>2014-10-08T07:27:47Z</time>
      </trkpt>
      <trkpt lat="43.24276" lon="5.63594">
        <ele>525.7</ele>
        <time>2014-10-08T07:27:50Z</time>
      </trkpt>
      <trkpt lat="43.24279" lon="5.63592">
        <ele>526.4</ele>
        <time>2014-10-08T07:27:53Z</time>
      </trkpt>
      <trkpt lat="43.24283" lon="5.63589">
        <ele>526</ele>
        <time>2014-10-08T07:27:57Z</time>
      </trkpt>
      <trkpt lat="43.24284" lon="5.63588">
        <ele>525.9</ele>
        <time>2014-10-08T07:27:58Z</time>
      </trkpt>
      <trkpt lat="43.24289" lon="5.63583">
        <ele>525.5</ele>
        <time>2014-10-08T07:28:04Z</time>
      </trkpt>
      <trkpt lat="43.24292" lon="5.63579">
        <ele>524.7</ele>
        <time>2014-10-08T07:28:07Z</time>
      </trkpt>
      <trkpt lat="43.24294" lon="5.63575">
        <ele>524.7</ele>
        <time>2014-10-08T07:28:10Z</time>
      </trkpt>
      <trkpt lat="43.24297" lon="5.63571">
        <ele>525</ele>
        <time>2014-10-08T07:28:14Z</time>
      </trkpt>
      <trkpt lat="43.243" lon="5.63567">
        <ele>525.2</ele>
        <time>2014-10-08T07:28:17Z</time>
      </trkpt>
      <trkpt lat="43.24302" lon="5.63564">
        <ele>525.9</ele>
        <time>2014-10-08T07:28:21Z</time>
      </trkpt>
      <trkpt lat="43.24304" lon="5.6356">
        <ele>526.2</ele>
        <time>2014-10-08T07:28:24Z</time>
      </trkpt>
      <trkpt lat="43.24307" lon="5.63557">
        <ele>525.7</ele>
        <time>2014-10-08T07:28:27Z</time>
      </trkpt>
      <trkpt lat="43.24309" lon="5.63554">
        <ele>525.4</ele>
        <time>2014-10-08T07:28:30Z</time>
      </trkpt>
      <trkpt lat="43.24312" lon="5.63551">
        <ele>525.9</ele>
        <time>2014-10-08T07:28:33Z</time>
      </trkpt>
      <trkpt lat="43.24316" lon="5.63548">
        <ele>526</ele>
        <time>2014-10-08T07:28:36Z</time>
      </trkpt>
      <trkpt lat="43.2432" lon="5.63545">
        <ele>525.5</ele>
        <time>2014-10-08T07:28:40Z</time>
      </trkpt>
      <trkpt lat="43.24324" lon="5.63546">
        <ele>524.5</ele>
        <time>2014-10-08T07:28:45Z</time>
      </trkpt>
      <trkpt lat="43.24327" lon="5.63548">
        <ele>524</ele>
        <time>2014-10-08T07:28:49Z</time>
      </trkpt>
      <trkpt lat="43.2433" lon="5.63551">
        <ele>523.9</ele>
        <time>2014-10-08T07:28:52Z</time>
      </trkpt>
      <trkpt lat="43.24332" lon="5.63554">
        <ele>523.5</ele>
        <time>2014-10-08T07:28:55Z</time>
      </trkpt>
      <trkpt lat="43.24335" lon="5.63558">
        <ele>523.9</ele>
        <time>2014-10-08T07:28:58Z</time>
      </trkpt>
      <trkpt lat="43.24335" lon="5.63559">
        <ele>523.5</ele>
        <time>2014-10-08T07:28:59Z</time>
      </trkpt>
      <trkpt lat="43.2434" lon="5.63566">
        <ele>523</ele>
        <time>2014-10-08T07:29:06Z</time>
      </trkpt>
      <trkpt lat="43.24341" lon="5.6357">
        <ele>523.2</ele>
        <time>2014-10-08T07:29:09Z</time>
      </trkpt>
      <trkpt lat="43.24344" lon="5.63574">
        <ele>522.7</ele>
        <time>2014-10-08T07:29:13Z</time>
      </trkpt>
      <trkpt lat="43.24345" lon="5.63579">
        <ele>521</ele>
        <time>2014-10-08T07:29:18Z</time>
      </trkpt>
      <trkpt lat="43.24345" lon="5.63585">
        <ele>521.7</ele>
        <time>2014-10-08T07:29:21Z</time>
      </trkpt>
      <trkpt lat="43.24347" lon="5.63591">
        <ele>522.2</ele>
        <time>2014-10-08T07:29:24Z</time>
      </trkpt>
      <trkpt lat="43.24348" lon="5.63596">
        <ele>522.2</ele>
        <time>2014-10-08T07:29:27Z</time>
      </trkpt>
      <trkpt lat="43.24348" lon="5.63601">
        <ele>522.2</ele>
        <time>2014-10-08T07:29:30Z</time>
      </trkpt>
      <trkpt lat="43.24349" lon="5.63605">
        <ele>522.2</ele>
        <time>2014-10-08T07:29:33Z</time>
      </trkpt>
      <trkpt lat="43.24349" lon="5.63611">
        <ele>522.4</ele>
        <time>2014-10-08T07:29:36Z</time>
      </trkpt>
      <trkpt lat="43.24349" lon="5.63615">
        <ele>522.5</ele>
        <time>2014-10-08T07:29:39Z</time>
      </trkpt>
      <trkpt lat="43.2435" lon="5.63621">
        <ele>522.5</ele>
        <time>2014-10-08T07:29:42Z</time>
      </trkpt>
      <trkpt lat="43.24351" lon="5.63627">
        <ele>522</ele>
        <time>2014-10-08T07:29:46Z</time>
      </trkpt>
      <trkpt lat="43.2435" lon="5.63633">
        <ele>521.4</ele>
        <time>2014-10-08T07:29:50Z</time>
      </trkpt>
      <trkpt lat="43.24352" lon="5.63639">
        <ele>520.9</ele>
        <time>2014-10-08T07:29:54Z</time>
      </trkpt>
      <trkpt lat="43.24353" lon="5.63643">
        <ele>520.2</ele>
        <time>2014-10-08T07:29:57Z</time>
      </trkpt>
      <trkpt lat="43.24357" lon="5.63644">
        <ele>519.7</ele>
        <time>2014-10-08T07:30:00Z</time>
      </trkpt>
      <trkpt lat="43.24359" lon="5.63644">
        <ele>520.2</ele>
        <time>2014-10-08T07:30:01Z</time>
      </trkpt>
      <trkpt lat="43.24364" lon="5.63641">
        <ele>519.5</ele>
        <time>2014-10-08T07:30:05Z</time>
      </trkpt>
      <trkpt lat="43.24366" lon="5.63637">
        <ele>519.7</ele>
        <time>2014-10-08T07:30:08Z</time>
      </trkpt>
      <trkpt lat="43.24368" lon="5.63633">
        <ele>520</ele>
        <time>2014-10-08T07:30:11Z</time>
      </trkpt>
      <trkpt lat="43.24369" lon="5.63627">
        <ele>518.5</ele>
        <time>2014-10-08T07:30:14Z</time>
      </trkpt>
      <trkpt lat="43.2437" lon="5.63622">
        <ele>517.5</ele>
        <time>2014-10-08T07:30:17Z</time>
      </trkpt>
      <trkpt lat="43.2437" lon="5.63617">
        <ele>516.9</ele>
        <time>2014-10-08T07:30:21Z</time>
      </trkpt>
      <trkpt lat="43.24371" lon="5.63611">
        <ele>515.7</ele>
        <time>2014-10-08T07:30:25Z</time>
      </trkpt>
      <trkpt lat="43.24371" lon="5.63605">
        <ele>514.5</ele>
        <time>2014-10-08T07:30:28Z</time>
      </trkpt>
      <trkpt lat="43.24371" lon="5.636">
        <ele>513.7</ele>
        <time>2014-10-08T07:30:31Z</time>
      </trkpt>
      <trkpt lat="43.24371" lon="5.63594">
        <ele>512.2</ele>
        <time>2014-10-08T07:30:34Z</time>
      </trkpt>
      <trkpt lat="43.2437" lon="5.63589">
        <ele>510.7</ele>
        <time>2014-10-08T07:30:37Z</time>
      </trkpt>
      <trkpt lat="43.24369" lon="5.63584">
        <ele>509.2</ele>
        <time>2014-10-08T07:30:40Z</time>
      </trkpt>
      <trkpt lat="43.24368" lon="5.6358">
        <ele>508.7</ele>
        <time>2014-10-08T07:30:43Z</time>
      </trkpt>
      <trkpt lat="43.24368" lon="5.63574">
        <ele>508.3</ele>
        <time>2014-10-08T07:30:47Z</time>
      </trkpt>
      <trkpt lat="43.24367" lon="5.63569">
        <ele>508.2</ele>
        <time>2014-10-08T07:30:51Z</time>
      </trkpt>
      <trkpt lat="43.24367" lon="5.63563">
        <ele>508.7</ele>
        <time>2014-10-08T07:30:55Z</time>
      </trkpt>
      <trkpt lat="43.24368" lon="5.63558">
        <ele>510.3</ele>
        <time>2014-10-08T07:30:58Z</time>
      </trkpt>
      <trkpt lat="43.24369" lon="5.63552">
        <ele>511.2</ele>
        <time>2014-10-08T07:31:02Z</time>
      </trkpt>
      <trkpt lat="43.24369" lon="5.63551">
        <ele>511.3</ele>
        <time>2014-10-08T07:31:03Z</time>
      </trkpt>
      <trkpt lat="43.24367" lon="5.63542">
        <ele>509.2</ele>
        <time>2014-10-08T07:31:08Z</time>
      </trkpt>
      <trkpt lat="43.24367" lon="5.63537">
        <ele>508.2</ele>
        <time>2014-10-08T07:31:11Z</time>
      </trkpt>
      <trkpt lat="43.24366" lon="5.63532">
        <ele>508.7</ele>
        <time>2014-10-08T07:31:14Z</time>
      </trkpt>
      <trkpt lat="43.24366" lon="5.63526">
        <ele>509.3</ele>
        <time>2014-10-08T07:31:18Z</time>
      </trkpt>
      <trkpt lat="43.24365" lon="5.63521">
        <ele>509.5</ele>
        <time>2014-10-08T07:31:21Z</time>
      </trkpt>
      <trkpt lat="43.24365" lon="5.63516">
        <ele>509.2</ele>
        <time>2014-10-08T07:31:24Z</time>
      </trkpt>
      <trkpt lat="43.24364" lon="5.63512">
        <ele>509.1</ele>
        <time>2014-10-08T07:31:27Z</time>
      </trkpt>
      <trkpt lat="43.24364" lon="5.63506">
        <ele>509</ele>
        <time>2014-10-08T07:31:30Z</time>
      </trkpt>
      <trkpt lat="43.24363" lon="5.63501">
        <ele>508.6</ele>
        <time>2014-10-08T07:31:33Z</time>
      </trkpt>
      <trkpt lat="43.24364" lon="5.63496">
        <ele>507.7</ele>
        <time>2014-10-08T07:31:37Z</time>
      </trkpt>
      <trkpt lat="43.24362" lon="5.63491">
        <ele>508.6</ele>
        <time>2014-10-08T07:31:40Z</time>
      </trkpt>
      <trkpt lat="43.24361" lon="5.63486">
        <ele>508.2</ele>
        <time>2014-10-08T07:31:43Z</time>
      </trkpt>
      <trkpt lat="43.2436" lon="5.63481">
        <ele>507.8</ele>
        <time>2014-10-08T07:31:46Z</time>
      </trkpt>
      <trkpt lat="43.24359" lon="5.63475">
        <ele>507</ele>
        <time>2014-10-08T07:31:49Z</time>
      </trkpt>
      <trkpt lat="43.24357" lon="5.6347">
        <ele>507</ele>
        <time>2014-10-08T07:31:53Z</time>
      </trkpt>
      <trkpt lat="43.24354" lon="5.63465">
        <ele>507.5</ele>
        <time>2014-10-08T07:31:58Z</time>
      </trkpt>
      <trkpt lat="43.24352" lon="5.63461">
        <ele>506.8</ele>
        <time>2014-10-08T07:32:01Z</time>
      </trkpt>
      <trkpt lat="43.2435" lon="5.63458">
        <ele>506.5</ele>
        <time>2014-10-08T07:32:04Z</time>
      </trkpt>
      <trkpt lat="43.24349" lon="5.63457">
        <ele>506.5</ele>
        <time>2014-10-08T07:32:05Z</time>
      </trkpt>
      <trkpt lat="43.24345" lon="5.63451">
        <ele>506.3</ele>
        <time>2014-10-08T07:32:10Z</time>
      </trkpt>
      <trkpt lat="43.24342" lon="5.63448">
        <ele>506.7</ele>
        <time>2014-10-08T07:32:13Z</time>
      </trkpt>
      <trkpt lat="43.2434" lon="5.63444">
        <ele>505.7</ele>
        <time>2014-10-08T07:32:16Z</time>
      </trkpt>
      <trkpt lat="43.24337" lon="5.63441">
        <ele>506.8</ele>
        <time>2014-10-08T07:32:20Z</time>
      </trkpt>
      <trkpt lat="43.24334" lon="5.63438">
        <ele>506</ele>
        <time>2014-10-08T07:32:23Z</time>
      </trkpt>
      <trkpt lat="43.24332" lon="5.63434">
        <ele>503.2</ele>
        <time>2014-10-08T07:32:26Z</time>
      </trkpt>
      <trkpt lat="43.24329" lon="5.6343">
        <ele>502.6</ele>
        <time>2014-10-08T07:32:29Z</time>
      </trkpt>
      <trkpt lat="43.24326" lon="5.63426">
        <ele>502.2</ele>
        <time>2014-10-08T07:32:32Z</time>
      </trkpt>
      <trkpt lat="43.24324" lon="5.63421">
        <ele>502.5</ele>
        <time>2014-10-08T07:32:36Z</time>
      </trkpt>
      <trkpt lat="43.24322" lon="5.63417">
        <ele>501.7</ele>
        <time>2014-10-08T07:32:39Z</time>
      </trkpt>
      <trkpt lat="43.24319" lon="5.63413">
        <ele>503.6</ele>
        <time>2014-10-08T07:32:43Z</time>
      </trkpt>
      <trkpt lat="43.24316" lon="5.6341">
        <ele>507.3</ele>
        <time>2014-10-08T07:32:47Z</time>
      </trkpt>
      <trkpt lat="43.24314" lon="5.63405">
        <ele>507.2</ele>
        <time>2014-10-08T07:32:51Z</time>
      </trkpt>
      <trkpt lat="43.24311" lon="5.634">
        <ele>507.2</ele>
        <time>2014-10-08T07:32:55Z</time>
      </trkpt>
      <trkpt lat="43.2431" lon="5.63395">
        <ele>504.7</ele>
        <time>2014-10-08T07:32:58Z</time>
      </trkpt>
      <trkpt lat="43.24309" lon="5.6339">
        <ele>502.8</ele>
        <time>2014-10-08T07:33:01Z</time>
      </trkpt>
      <trkpt lat="43.24308" lon="5.63384">
        <ele>500</ele>
        <time>2014-10-08T07:33:05Z</time>
      </trkpt>
      <trkpt lat="43.24308" lon="5.63382">
        <ele>499.2</ele>
        <time>2014-10-08T07:33:06Z</time>
      </trkpt>
      <trkpt lat="43.24308" lon="5.63373">
        <ele>496.6</ele>
        <time>2014-10-08T07:33:12Z</time>
      </trkpt>
      <trkpt lat="43.24307" lon="5.63368">
        <ele>496.5</ele>
        <time>2014-10-08T07:33:17Z</time>
      </trkpt>
      <trkpt lat="43.24307" lon="5.63363">
        <ele>494.8</ele>
        <time>2014-10-08T07:33:20Z</time>
      </trkpt>
      <trkpt lat="43.24307" lon="5.63358">
        <ele>494.1</ele>
        <time>2014-10-08T07:33:23Z</time>
      </trkpt>
      <trkpt lat="43.24307" lon="5.63352">
        <ele>494.7</ele>
        <time>2014-10-08T07:33:27Z</time>
      </trkpt>
      <trkpt lat="43.24306" lon="5.63347">
        <ele>496.2</ele>
        <time>2014-10-08T07:33:31Z</time>
      </trkpt>
      <trkpt lat="43.24306" lon="5.63342">
        <ele>495.7</ele>
        <time>2014-10-08T07:33:34Z</time>
      </trkpt>
      <trkpt lat="43.24306" lon="5.63336">
        <ele>495.1</ele>
        <time>2014-10-08T07:33:39Z</time>
      </trkpt>
      <trkpt lat="43.24305" lon="5.63331">
        <ele>493.6</ele>
        <time>2014-10-08T07:33:42Z</time>
      </trkpt>
      <trkpt lat="43.24305" lon="5.63325">
        <ele>491</ele>
        <time>2014-10-08T07:33:45Z</time>
      </trkpt>
      <trkpt lat="43.24305" lon="5.63321">
        <ele>490.1</ele>
        <time>2014-10-08T07:33:47Z</time>
      </trkpt>
      <trkpt lat="43.24304" lon="5.63316">
        <ele>488</ele>
        <time>2014-10-08T07:33:50Z</time>
      </trkpt>
      <trkpt lat="43.24304" lon="5.6331">
        <ele>486</ele>
        <time>2014-10-08T07:33:53Z</time>
      </trkpt>
      <trkpt lat="43.24305" lon="5.63305">
        <ele>487</ele>
        <time>2014-10-08T07:33:57Z</time>
      </trkpt>
      <trkpt lat="43.24304" lon="5.63301">
        <ele>488.1</ele>
        <time>2014-10-08T07:34:00Z</time>
      </trkpt>
      <trkpt lat="43.24302" lon="5.63297">
        <ele>486.7</ele>
        <time>2014-10-08T07:34:03Z</time>
      </trkpt>
      <trkpt lat="43.24301" lon="5.63292">
        <ele>485.2</ele>
        <time>2014-10-08T07:34:06Z</time>
      </trkpt>
      <trkpt lat="43.243" lon="5.63291">
        <ele>485.7</ele>
        <time>2014-10-08T07:34:07Z</time>
      </trkpt>
      <trkpt lat="43.24297" lon="5.63283">
        <ele>489</ele>
        <time>2014-10-08T07:34:15Z</time>
      </trkpt>
      <trkpt lat="43.24295" lon="5.63279">
        <ele>490</ele>
        <time>2014-10-08T07:34:19Z</time>
      </trkpt>
      <trkpt lat="43.24293" lon="5.63274">
        <ele>490.5</ele>
        <time>2014-10-08T07:34:23Z</time>
      </trkpt>
      <trkpt lat="43.24291" lon="5.63269">
        <ele>491.2</ele>
        <time>2014-10-08T07:34:26Z</time>
      </trkpt>
      <trkpt lat="43.2429" lon="5.63264">
        <ele>488.7</ele>
        <time>2014-10-08T07:34:29Z</time>
      </trkpt>
      <trkpt lat="43.24288" lon="5.63259">
        <ele>489</ele>
        <time>2014-10-08T07:34:33Z</time>
      </trkpt>
      <trkpt lat="43.24287" lon="5.63254">
        <ele>489.1</ele>
        <time>2014-10-08T07:34:36Z</time>
      </trkpt>
      <trkpt lat="43.24285" lon="5.63249">
        <ele>488.8</ele>
        <time>2014-10-08T07:34:39Z</time>
      </trkpt>
      <trkpt lat="43.24283" lon="5.63245">
        <ele>489.2</ele>
        <time>2014-10-08T07:34:42Z</time>
      </trkpt>
      <trkpt lat="43.24281" lon="5.63241">
        <ele>487.6</ele>
        <time>2014-10-08T07:34:45Z</time>
      </trkpt>
      <trkpt lat="43.24281" lon="5.63235">
        <ele>485</ele>
        <time>2014-10-08T07:34:49Z</time>
      </trkpt>
      <trkpt lat="43.24279" lon="5.6323">
        <ele>483.5</ele>
        <time>2014-10-08T07:34:53Z</time>
      </trkpt>
      <trkpt lat="43.24277" lon="5.63225">
        <ele>481.7</ele>
        <time>2014-10-08T07:34:57Z</time>
      </trkpt>
      <trkpt lat="43.24275" lon="5.63221">
        <ele>482</ele>
        <time>2014-10-08T07:35:00Z</time>
      </trkpt>
      <trkpt lat="43.24274" lon="5.63217">
        <ele>482.1</ele>
        <time>2014-10-08T07:35:03Z</time>
      </trkpt>
      <trkpt lat="43.24274" lon="5.63212">
        <ele>480</ele>
        <time>2014-10-08T07:35:05Z</time>
      </trkpt>
      <trkpt lat="43.24271" lon="5.63207">
        <ele>480.7</ele>
        <time>2014-10-08T07:35:08Z</time>
      </trkpt>
      <trkpt lat="43.24271" lon="5.63205">
        <ele>479.3</ele>
        <time>2014-10-08T07:35:09Z</time>
      </trkpt>
      <trkpt lat="43.24268" lon="5.63196">
        <ele>477.7</ele>
        <time>2014-10-08T07:35:15Z</time>
      </trkpt>
      <trkpt lat="43.24268" lon="5.6319">
        <ele>477.1</ele>
        <time>2014-10-08T07:35:19Z</time>
      </trkpt>
      <trkpt lat="43.24268" lon="5.63185">
        <ele>475.8</ele>
        <time>2014-10-08T07:35:22Z</time>
      </trkpt>
      <trkpt lat="43.24266" lon="5.63181">
        <ele>476.7</ele>
        <time>2014-10-08T07:35:25Z</time>
      </trkpt>
      <trkpt lat="43.24264" lon="5.63175">
        <ele>478.1</ele>
        <time>2014-10-08T07:35:29Z</time>
      </trkpt>
      <trkpt lat="43.24263" lon="5.6317">
        <ele>478.2</ele>
        <time>2014-10-08T07:35:32Z</time>
      </trkpt>
      <trkpt lat="43.24262" lon="5.63165">
        <ele>477.3</ele>
        <time>2014-10-08T07:35:35Z</time>
      </trkpt>
      <trkpt lat="43.2426" lon="5.63162">
        <ele>477</ele>
        <time>2014-10-08T07:35:38Z</time>
      </trkpt>
      <trkpt lat="43.24259" lon="5.63156">
        <ele>474.6</ele>
        <time>2014-10-08T07:35:41Z</time>
      </trkpt>
      <trkpt lat="43.24259" lon="5.63151">
        <ele>475.1</ele>
        <time>2014-10-08T07:35:46Z</time>
      </trkpt>
      <trkpt lat="43.24258" lon="5.63145">
        <ele>472.7</ele>
        <time>2014-10-08T07:35:49Z</time>
      </trkpt>
      <trkpt lat="43.24257" lon="5.6314">
        <ele>469.8</ele>
        <time>2014-10-08T07:35:52Z</time>
      </trkpt>
      <trkpt lat="43.24256" lon="5.63136">
        <ele>468</ele>
        <time>2014-10-08T07:35:54Z</time>
      </trkpt>
      <trkpt lat="43.24256" lon="5.63132">
        <ele>466.5</ele>
        <time>2014-10-08T07:35:56Z</time>
      </trkpt>
      <trkpt lat="43.24255" lon="5.63126">
        <ele>465.2</ele>
        <time>2014-10-08T07:35:59Z</time>
      </trkpt>
      <trkpt lat="43.24253" lon="5.63121">
        <ele>465.6</ele>
        <time>2014-10-08T07:36:04Z</time>
      </trkpt>
      <trkpt lat="43.24252" lon="5.63117">
        <ele>465.6</ele>
        <time>2014-10-08T07:36:07Z</time>
      </trkpt>
      <trkpt lat="43.24252" lon="5.63111">
        <ele>463.2</ele>
        <time>2014-10-08T07:36:10Z</time>
      </trkpt>
      <trkpt lat="43.24251" lon="5.6311">
        <ele>464.2</ele>
        <time>2014-10-08T07:36:11Z</time>
      </trkpt>
      <trkpt lat="43.24248" lon="5.63102">
        <ele>466.7</ele>
        <time>2014-10-08T07:36:17Z</time>
      </trkpt>
      <trkpt lat="43.24246" lon="5.63097">
        <ele>466.8</ele>
        <time>2014-10-08T07:36:20Z</time>
      </trkpt>
      <trkpt lat="43.24245" lon="5.63092">
        <ele>468.8</ele>
        <time>2014-10-08T07:36:24Z</time>
      </trkpt>
      <trkpt lat="43.24245" lon="5.63087">
        <ele>468.3</ele>
        <time>2014-10-08T07:36:27Z</time>
      </trkpt>
      <trkpt lat="43.24245" lon="5.63082">
        <ele>467.7</ele>
        <time>2014-10-08T07:36:30Z</time>
      </trkpt>
      <trkpt lat="43.24244" lon="5.63078">
        <ele>469.2</ele>
        <time>2014-10-08T07:36:33Z</time>
      </trkpt>
      <trkpt lat="43.24243" lon="5.63073">
        <ele>470.1</ele>
        <time>2014-10-08T07:36:36Z</time>
      </trkpt>
      <trkpt lat="43.24242" lon="5.63068">
        <ele>472.7</ele>
        <time>2014-10-08T07:36:40Z</time>
      </trkpt>
      <trkpt lat="43.24242" lon="5.63062">
        <ele>470.8</ele>
        <time>2014-10-08T07:36:43Z</time>
      </trkpt>
      <trkpt lat="43.24241" lon="5.63057">
        <ele>469.3</ele>
        <time>2014-10-08T07:36:46Z</time>
      </trkpt>
      <trkpt lat="43.24241" lon="5.63051">
        <ele>468.7</ele>
        <time>2014-10-08T07:36:50Z</time>
      </trkpt>
      <trkpt lat="43.24241" lon="5.63046">
        <ele>468.5</ele>
        <time>2014-10-08T07:36:53Z</time>
      </trkpt>
      <trkpt lat="43.2424" lon="5.63041">
        <ele>466.8</ele>
        <time>2014-10-08T07:36:56Z</time>
      </trkpt>
      <trkpt lat="43.24241" lon="5.63035">
        <ele>466.2</ele>
        <time>2014-10-08T07:37:00Z</time>
      </trkpt>
      <trkpt lat="43.24241" lon="5.63029">
        <ele>467.3</ele>
        <time>2014-10-08T07:37:04Z</time>
      </trkpt>
      <trkpt lat="43.24242" lon="5.63025">
        <ele>466.5</ele>
        <time>2014-10-08T07:37:07Z</time>
      </trkpt>
      <trkpt lat="43.24241" lon="5.6302">
        <ele>467.1</ele>
        <time>2014-10-08T07:37:11Z</time>
      </trkpt>
      <trkpt lat="43.24241" lon="5.63019">
        <ele>467.5</ele>
        <time>2014-10-08T07:37:12Z</time>
      </trkpt>
    </trkseg>
  </trk>
</gpx>